Time;durP1;ratioP1;P1;durP2;ratioP2;P2;SDS_P1;SDS_P2;PMS_P1;PMS_P2;Temp;Humidity;BMP_temperature;BMP_pressure;BME280_temperature;BME280_humidity;BME280_pressure;Samples;Min_cycle;Max_cycle;Signal;HPM_P1;HPM_P2
2022/10/11 00:02:20;;;;;;;11.33;2.70;;;12.40;99.90;;;;;;5059047;28;20719;-71
2022/10/11 00:04:46;;;;;;;4.50;2.10;;;12.40;99.90;;;;;;5034773;28;20291;-71
2022/10/11 00:07:11;;;;;;;7.37;2.30;;;12.30;99.90;;;;;;5031799;28;20243;-71
2022/10/11 00:09:37;;;;;;;6.53;2.40;;;12.30;99.90;;;;;;5059593;28;20207;-71
2022/10/11 00:12:03;;;;;;;5.10;1.80;;;12.20;99.90;;;;;;5055051;28;20188;-71
2022/10/11 00:14:28;;;;;;;7.53;2.67;;;12.20;99.90;;;;;;5036860;28;20618;-71
2022/10/11 00:16:54;;;;;;;7.00;1.70;;;12.20;99.90;;;;;;5049766;28;20210;-70
2022/10/11 00:19:20;;;;;;;8.83;2.43;;;12.10;99.90;;;;;;5044272;28;20199;-71
2022/10/11 00:21:46;;;;;;;5.40;1.77;;;12.10;99.90;;;;;;5050380;28;20212;-70
2022/10/11 00:24:12;;;;;;;5.67;1.90;;;12.00;99.90;;;;;;5047391;28;20417;-71
2022/10/11 00:26:38;;;;;;;8.73;2.07;;;12.00;99.90;;;;;;5054716;28;20220;-71
2022/10/11 00:29:04;;;;;;;7.80;2.73;;;12.00;99.90;;;;;;5055254;28;20238;-70
2022/10/11 00:31:29;;;;;;;7.37;2.23;;;11.90;99.90;;;;;;5036324;28;20204;-71
2022/10/11 00:33:55;;;;;;;7.00;2.00;;;11.90;99.90;;;;;;5042388;28;20212;-71
2022/10/11 00:36:23;;;;;;;5.80;2.00;;;11.90;99.90;;;;;;5059280;28;20171;-71
2022/10/11 00:38:48;;;;;;;4.27;2.30;;;11.90;99.90;;;;;;5050645;28;20176;-71
2022/10/11 00:41:15;;;;;;;5.10;2.23;;;11.90;99.90;;;;;;5046924;28;20289;-69
2022/10/11 00:43:41;;;;;;;3.93;2.03;;;11.80;99.90;;;;;;5054719;28;20211;-69
2022/10/11 00:46:16;;;;;;;10.30;2.40;;;11.70;99.90;;;;;;5054720;28;20266;-69
2022/10/11 00:48:46;;;;;;;5.67;2.10;;;11.70;99.90;;;;;;5050349;28;20227;-69
2022/10/11 00:51:36;;;;;;;6.27;1.87;;;11.70;99.90;;;;;;5047254;28;20235;-69
2022/10/11 00:54:02;;;;;;;7.00;2.43;;;11.70;99.90;;;;;;5054651;28;20212;-69
2022/10/11 00:56:32;;;;;;;10.47;2.63;;;11.70;99.90;;;;;;5048561;28;20750;-69
2022/10/11 00:59:01;;;;;;;10.87;2.57;;;11.70;99.90;;;;;;5043793;28;20580;-69
2022/10/11 01:01:27;;;;;;;10.87;2.47;;;11.60;99.90;;;;;;5059786;28;20218;-69
2022/10/11 01:03:53;;;;;;;9.60;2.47;;;11.50;99.90;;;;;;5050558;28;20639;-71
2022/10/11 01:06:19;;;;;;;7.50;2.80;;;11.50;99.90;;;;;;5037345;28;20610;-72
2022/10/11 01:08:45;;;;;;;6.93;2.60;;;11.50;99.90;;;;;;5047772;28;20306;-72
2022/10/11 01:11:17;;;;;;;6.83;2.20;;;11.50;99.90;;;;;;5055705;28;20768;-72
2022/10/11 01:14:01;;;;;;;9.93;1.67;;;11.50;99.90;;;;;;5030684;28;20238;-72
2022/10/11 01:16:38;;;;;;;7.60;2.20;;;11.40;99.90;;;;;;5043702;28;20756;-72
2022/10/11 01:19:32;;;;;;;7.67;2.30;;;11.30;99.90;;;;;;5057883;28;20702;-71
2022/10/11 01:22:35;;;;;;;10.80;2.10;;;11.30;99.90;;;;;;5037120;28;20219;-71
2022/10/11 01:25:16;;;;;;;11.33;2.40;;;11.30;99.90;;;;;;5043105;28;20588;-71
2022/10/11 01:27:41;;;;;;;11.73;2.37;;;11.30;99.90;;;;;;5055974;28;20298;-73
2022/10/11 01:30:33;;;;;;;10.60;2.57;;;11.30;99.90;;;;;;5051035;28;20659;-72
2022/10/11 01:33:27;;;;;;;11.63;2.70;;;11.20;99.90;;;;;;5043695;28;20679;-71
2022/10/11 01:36:06;;;;;;;10.23;2.23;;;11.30;99.90;;;;;;5033040;28;20206;-72
2022/10/11 01:38:40;;;;;;;11.30;2.50;;;11.20;99.90;;;;;;5051853;28;20238;-71
2022/10/11 01:41:30;;;;;;;12.17;2.87;;;11.20;99.90;;;;;;5044952;28;20273;-72
2022/10/11 01:43:59;;;;;;;9.07;3.00;;;11.20;99.90;;;;;;5053777;28;20218;-71
2022/10/11 01:46:27;;;;;;;7.90;2.43;;;11.10;99.90;;;;;;5053949;28;20245;-71
2022/10/11 01:48:55;;;;;;;10.80;2.17;;;11.20;99.90;;;;;;5044914;28;20228;-71
2022/10/11 01:51:26;;;;;;;8.43;2.13;;;11.10;99.90;;;;;;5046926;28;20727;-72
2022/10/11 01:54:12;;;;;;;4.80;2.00;;;11.10;99.90;;;;;;5053550;28;20175;-72
2022/10/11 01:57:20;;;;;;;12.50;2.40;;;11.00;99.90;;;;;;5045484;28;20207;-72
2022/10/11 02:00:17;;;;;;;8.83;2.23;;;11.00;99.90;;;;;;5032248;28;20747;-72
2022/10/11 02:02:51;;;;;;;8.50;2.03;;;10.90;99.90;;;;;;5050288;28;20235;-72
2022/10/11 02:05:37;;;;;;;8.83;2.30;;;10.90;99.90;;;;;;5050262;28;20221;-69
2022/10/11 02:08:22;;;;;;;11.70;2.53;;;11.00;99.90;;;;;;5043560;28;20224;-69
2022/10/11 02:11:24;;;;;;;11.47;2.70;;;11.00;99.90;;;;;;5050514;28;20230;-72
2022/10/11 02:14:01;;;;;;;8.43;2.57;;;11.00;99.90;;;;;;5002543;28;20315;-72
2022/10/11 02:16:37;;;;;;;10.77;2.30;;;10.90;99.90;;;;;;5025045;28;20199;-72
2022/10/11 02:19:04;;;;;;;12.67;2.60;;;10.90;99.90;;;;;;5056648;28;20218;-71
2022/10/11 02:21:33;;;;;;;7.77;2.30;;;10.90;99.90;;;;;;5050634;28;20238;-72
2022/10/11 02:24:04;;;;;;;9.53;2.20;;;10.90;99.90;;;;;;5025847;28;20204;-71
2022/10/11 02:26:32;;;;;;;10.73;2.77;;;10.90;99.90;;;;;;5034891;28;20285;-72
2022/10/11 02:29:02;;;;;;;8.07;2.17;;;10.80;99.90;;;;;;5051350;28;20695;-71
2022/10/11 02:31:31;;;;;;;7.47;2.33;;;10.70;99.90;;;;;;5047644;28;20211;-71
2022/10/11 02:34:29;;;;;;;12.00;2.43;;;10.70;99.90;;;;;;5040691;28;20343;-69
2022/10/11 02:37:05;;;;;;;11.07;2.70;;;10.70;99.90;;;;;;5015119;28;20231;-69
2022/10/11 02:39:38;;;;;;;8.70;2.80;;;10.70;99.90;;;;;;5044980;28;20270;-69
2022/10/11 02:42:08;;;;;;;9.37;2.93;;;10.70;99.90;;;;;;5041128;28;20184;-69
2022/10/11 02:44:43;;;;;;;13.30;2.33;;;10.60;99.90;;;;;;5051206;28;20222;-70
2022/10/11 02:47:09;;;;;;;12.33;3.23;;;10.60;99.90;;;;;;5044269;28;20211;-69
2022/10/11 02:49:35;;;;;;;11.63;2.40;;;10.70;99.90;;;;;;5042106;28;20215;-70
2022/10/11 02:52:04;;;;;;;10.90;2.47;;;10.60;99.90;;;;;;5025010;28;20222;-69
2022/10/11 02:54:30;;;;;;;13.30;2.27;;;10.60;99.90;;;;;;5032059;28;20214;-70
2022/10/11 02:56:55;;;;;;;7.47;2.60;;;10.60;99.90;;;;;;5042623;28;20283;-69
2022/10/11 02:59:21;;;;;;;13.53;2.30;;;10.70;99.90;;;;;;5042110;28;20238;-69
2022/10/11 03:01:47;;;;;;;8.63;2.63;;;10.60;99.90;;;;;;5029819;28;20214;-69
2022/10/11 03:04:12;;;;;;;10.13;2.57;;;10.60;99.90;;;;;;5044835;28;20219;-69
2022/10/11 03:06:38;;;;;;;8.17;2.13;;;10.60;99.90;;;;;;5024254;28;20203;-70
2022/10/11 03:09:04;;;;;;;6.57;2.30;;;10.50;99.90;;;;;;5043671;28;20243;-69
2022/10/11 03:11:29;;;;;;;14.87;2.80;;;10.50;99.90;;;;;;5046539;28;20214;-71
2022/10/11 03:13:55;;;;;;;9.47;2.10;;;10.50;99.90;;;;;;5042602;28;20702;-69
2022/10/11 03:16:20;;;;;;;13.07;2.60;;;10.50;99.90;;;;;;5042291;28;20633;-69
2022/10/11 03:18:46;;;;;;;10.07;2.33;;;10.50;99.90;;;;;;5049348;28;20722;-70
2022/10/11 03:21:12;;;;;;;10.87;3.17;;;10.40;99.90;;;;;;5048834;28;20210;-69
2022/10/11 03:23:37;;;;;;;9.93;2.80;;;10.40;99.90;;;;;;5046372;28;20211;-69
2022/10/11 03:26:03;;;;;;;9.53;2.30;;;10.30;99.90;;;;;;5046869;28;20222;-68
2022/10/11 03:28:28;;;;;;;10.67;2.43;;;10.30;99.90;;;;;;5051117;28;20349;-69
2022/10/11 03:30:54;;;;;;;8.50;2.83;;;10.30;99.90;;;;;;5045658;28;20220;-68
2022/10/11 03:33:20;;;;;;;12.80;2.77;;;10.30;99.90;;;;;;5047124;28;20176;-69
2022/10/11 03:35:47;;;;;;;11.67;2.60;;;10.30;99.90;;;;;;5033830;28;20214;-69
2022/10/11 03:38:15;;;;;;;14.40;2.90;;;10.30;99.90;;;;;;5043022;28;20223;-69
2022/10/11 03:40:42;;;;;;;9.37;2.83;;;10.30;99.90;;;;;;5045322;28;20242;-71
2022/10/11 03:43:07;;;;;;;8.40;2.70;;;10.30;99.90;;;;;;5029311;28;20211;-72
2022/10/11 03:45:33;;;;;;;10.23;2.43;;;10.30;99.90;;;;;;5050595;28;20249;-72
2022/10/11 03:47:59;;;;;;;13.33;3.00;;;10.20;99.90;;;;;;5028559;28;20291;-71
2022/10/11 03:50:24;;;;;;;8.57;2.73;;;10.20;99.90;;;;;;5034667;28;20316;-71
2022/10/11 03:52:50;;;;;;;12.17;3.10;;;10.20;99.90;;;;;;5030590;28;20742;-71
2022/10/11 03:55:16;;;;;;;9.23;2.30;;;10.20;99.90;;;;;;5048754;28;20631;-69
2022/10/11 03:57:41;;;;;;;10.50;2.77;;;10.20;99.90;;;;;;5045519;28;20222;-70
2022/10/11 04:00:07;;;;;;;13.10;2.90;;;10.20;99.90;;;;;;5043387;28;20629;-69
2022/10/11 04:02:33;;;;;;;10.90;2.97;;;10.20;99.90;;;;;;5050481;28;20222;-69
2022/10/11 04:04:58;;;;;;;8.93;2.77;;;10.20;99.90;;;;;;5027896;28;20208;-69
2022/10/11 04:07:24;;;;;;;14.37;2.97;;;10.20;99.90;;;;;;5045318;28;20208;-70
2022/10/11 04:09:50;;;;;;;13.40;4.27;;;10.20;99.90;;;;;;5047131;28;20219;-72
2022/10/11 04:12:16;;;;;;;14.17;2.97;;;10.10;99.90;;;;;;5031357;28;20180;-69
2022/10/11 04:14:42;;;;;;;12.03;2.90;;;10.10;99.90;;;;;;5045158;28;20219;-69
2022/10/11 04:17:07;;;;;;;9.00;3.03;;;10.00;99.90;;;;;;5043190;28;20291;-69
2022/10/11 04:19:35;;;;;;;11.63;3.23;;;10.00;99.90;;;;;;5052302;28;20207;-69
2022/10/11 04:22:04;;;;;;;9.80;2.93;;;10.00;99.90;;;;;;5045592;28;20213;-69
2022/10/11 04:24:29;;;;;;;11.80;3.50;;;10.10;99.90;;;;;;5044858;28;20183;-70
2022/10/11 04:26:55;;;;;;;13.27;2.83;;;10.10;99.90;;;;;;5048048;28;20176;-69
2022/10/11 04:29:21;;;;;;;14.47;3.13;;;10.00;99.90;;;;;;5047075;28;20830;-69
2022/10/11 04:31:46;;;;;;;11.63;3.33;;;9.90;99.90;;;;;;5044467;28;20207;-69
2022/10/11 04:34:12;;;;;;;13.73;3.20;;;9.90;99.90;;;;;;5043870;28;20293;-70
2022/10/11 04:36:38;;;;;;;9.13;3.70;;;10.00;99.90;;;;;;5046379;28;20264;-70
2022/10/11 04:39:05;;;;;;;12.03;2.97;;;9.90;99.90;;;;;;5045968;28;20683;-69
2022/10/11 04:41:31;;;;;;;10.80;3.17;;;9.90;99.90;;;;;;5044106;28;20720;-70
2022/10/11 04:43:57;;;;;;;12.13;3.50;;;9.80;99.90;;;;;;5047592;28;20208;-69
2022/10/11 04:48:55;;;;;;;11.93;3.47;;;9.80;99.90;;;;;;5074842;22;20224;-69
2022/10/11 04:51:21;;;;;;;13.17;3.30;;;9.80;99.90;;;;;;5046538;28;20669;-70
2022/10/11 04:53:48;;;;;;;12.07;4.03;;;9.80;99.90;;;;;;5034166;28;20187;-71
2022/10/11 04:56:17;;;;;;;15.73;3.90;;;9.80;99.90;;;;;;5057409;28;20708;-70
2022/10/11 04:58:43;;;;;;;15.70;4.00;;;9.80;99.90;;;;;;5042993;28;20598;-70
2022/10/11 05:01:10;;;;;;;14.70;3.47;;;9.80;99.90;;;;;;5045318;28;20239;-70
2022/10/11 05:03:36;;;;;;;15.47;3.93;;;9.80;99.90;;;;;;5048980;28;20737;-71
2022/10/11 05:06:02;;;;;;;13.47;3.70;;;9.70;99.90;;;;;;5043757;28;20220;-71
2022/10/11 05:08:28;;;;;;;11.50;3.87;;;9.70;99.90;;;;;;5044004;28;20785;-71
2022/10/11 05:11:01;;;;;;;9.70;3.37;;;9.70;99.90;;;;;;5048010;28;20216;-70
2022/10/11 05:13:27;;;;;;;12.67;3.50;;;9.70;99.90;;;;;;5047194;28;20610;-71
2022/10/11 05:15:53;;;;;;;9.90;4.03;;;9.70;99.90;;;;;;5023304;28;20687;-70
2022/10/11 05:18:19;;;;;;;12.07;4.07;;;9.70;99.90;;;;;;5047134;28;20204;-71
2022/10/11 05:20:44;;;;;;;9.50;3.43;;;9.60;99.90;;;;;;5047241;28;20337;-71
2022/10/11 05:23:10;;;;;;;12.23;4.33;;;9.60;99.90;;;;;;5045081;28;20287;-71
2022/10/11 05:25:36;;;;;;;10.00;4.03;;;9.60;99.90;;;;;;5026193;28;20286;-71
2022/10/11 05:28:02;;;;;;;9.77;3.90;;;9.60;99.90;;;;;;5048139;28;20228;-70
2022/10/11 05:30:27;;;;;;;14.00;4.40;;;9.70;99.90;;;;;;5046495;28;20278;-71
2022/10/11 05:32:53;;;;;;;10.33;4.23;;;9.70;99.90;;;;;;5041775;28;20673;-70
2022/10/11 05:35:19;;;;;;;14.20;4.50;;;9.80;99.90;;;;;;5042442;28;20252;-71
2022/10/11 05:37:44;;;;;;;9.97;3.93;;;9.80;99.90;;;;;;5046939;28;20211;-71
2022/10/11 05:40:10;;;;;;;9.87;3.40;;;9.90;99.90;;;;;;5043958;28;20216;-71
2022/10/11 05:42:36;;;;;;;11.17;3.73;;;10.00;99.90;;;;;;5043366;28;20183;-71
2022/10/11 05:45:06;;;;;;;13.33;4.00;;;10.10;99.90;;;;;;5048391;28;20171;-71
2022/10/11 05:47:32;;;;;;;16.43;4.13;;;10.10;99.90;;;;;;5046391;28;20227;-71
2022/10/11 05:49:58;;;;;;;9.60;3.93;;;10.20;99.90;;;;;;5038358;28;20717;-70
2022/10/11 05:52:23;;;;;;;16.43;4.77;;;10.30;99.90;;;;;;5046234;28;20216;-71
2022/10/11 05:54:49;;;;;;;14.67;3.43;;;10.40;99.90;;;;;;5027978;28;20220;-71
2022/10/11 05:57:15;;;;;;;16.50;3.90;;;10.60;99.90;;;;;;5043991;28;20750;-72
2022/10/11 05:59:40;;;;;;;11.37;4.27;;;11.50;99.90;;;;;;5040386;28;20315;-71
2022/10/11 06:02:10;;;;;;;12.33;3.57;;;12.30;99.90;;;;;;5047175;28;20208;-70
2022/10/11 06:04:36;;;;;;;15.77;3.57;;;13.10;99.90;;;;;;5045948;28;20204;-70
2022/10/11 06:07:02;;;;;;;12.20;3.10;;;13.60;99.90;;;;;;5041291;28;20274;-70
2022/10/11 06:09:28;;;;;;;8.50;3.43;;;14.20;99.90;;;;;;5045521;28;20237;-70
2022/10/11 06:11:54;;;;;;;7.53;2.87;;;14.80;99.90;;;;;;5046465;28;20619;-69
2022/10/11 06:14:19;;;;;;;10.10;3.22;;;15.70;99.90;;;;;;5027005;28;20260;-70
2022/10/11 06:16:45;;;;;;;11.63;3.10;;;16.20;99.90;;;;;;5039830;28;20236;-70
2022/10/11 06:19:10;;;;;;;8.98;3.65;;;16.50;99.90;;;;;;5047197;28;20261;-69
2022/10/11 06:21:36;;;;;;;9.13;3.40;;;16.80;99.90;;;;;;5045673;28;20183;-70
2022/10/11 06:24:02;;;;;;;8.05;2.80;;;17.20;99.90;;;;;;5042119;28;20181;-70
2022/10/11 06:26:28;;;;;;;11.15;3.28;;;17.60;99.90;;;;;;5027959;28;20205;-68
2022/10/11 06:28:53;;;;;;;9.23;3.33;;;18.10;99.90;;;;;;5045512;28;20219;-69
2022/10/11 06:31:19;;;;;;;9.50;2.75;;;18.40;99.90;;;;;;5026980;28;20342;-70
2022/10/11 06:33:44;;;;;;;7.28;2.83;;;18.90;99.90;;;;;;5039942;28;20205;-70
2022/10/11 06:36:12;;;;;;;7.55;2.95;;;19.30;99.90;;;;;;5047762;28;20172;-71
2022/10/11 06:38:38;;;;;;;11.32;3.05;;;19.70;99.90;;;;;;5022092;28;20219;-70
2022/10/11 06:41:17;;;;;;;10.02;3.05;;;20.00;99.90;;;;;;5041428;28;20294;-71
2022/10/11 06:43:43;;;;;;;11.48;3.17;;;20.30;99.90;;;;;;5045575;28;20231;-72
2022/10/11 06:46:10;;;;;;;9.55;3.70;;;20.20;99.90;;;;;;5045538;28;20219;-71
2022/10/11 06:48:42;;;;;;;5.70;3.05;;;20.40;99.90;;;;;;5043530;28;20302;-71
2022/10/11 06:51:08;;;;;;;10.82;3.33;;;20.60;99.90;;;;;;5040874;28;20654;-71
2022/10/11 06:53:34;;;;;;;9.75;3.00;;;20.50;99.90;;;;;;5049163;28;20292;-70
2022/10/11 06:56:08;;;;;;;10.27;3.20;;;20.30;99.90;;;;;;5028466;28;20649;-70
2022/10/11 06:58:34;;;;;;;13.40;3.83;;;20.80;99.90;;;;;;5042991;28;20723;-71
2022/10/11 07:01:01;;;;;;;8.50;2.50;;;20.80;99.90;;;;;;5046347;28;20291;-69
2022/10/11 07:03:28;;;;;;;7.35;2.72;;;21.10;99.90;;;;;;5050684;28;20222;-70
2022/10/11 07:05:53;;;;;;;8.30;3.13;;;21.10;99.90;;;;;;5045983;28;20195;-69
2022/10/11 07:08:19;;;;;;;9.65;3.03;;;21.00;99.90;;;;;;5045628;28;20215;-69
2022/10/11 07:10:44;;;;;;;5.80;2.65;;;21.30;99.90;;;;;;5025670;28;20562;-70
2022/10/11 07:13:10;;;;;;;8.05;2.75;;;21.20;99.90;;;;;;5034484;28;20854;-70
2022/10/11 07:15:37;;;;;;;7.35;2.60;;;21.40;99.90;;;;;;5046569;28;20175;-69
2022/10/11 07:18:02;;;;;;;9.55;2.92;;;20.80;99.90;;;;;;5048731;28;20200;-70
2022/10/11 07:20:28;;;;;;;5.80;2.50;;;20.70;99.90;;;;;;5049882;28;20303;-70
2022/10/11 07:22:54;;;;;;;7.93;2.83;;;20.40;99.90;;;;;;5045457;28;20266;-69
2022/10/11 07:25:19;;;;;;;8.48;2.75;;;20.10;99.90;;;;;;5027736;28;20204;-70
2022/10/11 07:27:45;;;;;;;10.25;2.92;;;20.50;99.90;;;;;;5050674;28;20596;-69
2022/10/11 07:30:11;;;;;;;10.43;2.88;;;20.10;99.90;;;;;;5046793;28;20250;-70
2022/10/11 07:32:36;;;;;;;6.72;2.42;;;19.80;99.90;;;;;;5044437;28;20333;-69
2022/10/11 07:35:02;;;;;;;8.90;3.40;;;19.80;99.90;;;;;;5045555;28;20204;-69
2022/10/11 07:37:28;;;;;;;10.25;2.90;;;19.90;99.90;;;;;;5049710;28;20749;-70
2022/10/11 07:39:53;;;;;;;12.43;3.70;;;20.20;99.90;;;;;;5029038;28;20248;-69
2022/10/11 07:42:19;;;;;;;9.07;2.65;;;20.60;99.90;;;;;;5045671;28;20302;-69
2022/10/11 07:44:44;;;;;;;8.48;2.53;;;20.60;99.90;;;;;;5047545;28;20239;-69
2022/10/11 07:47:10;;;;;;;6.38;2.13;;;21.00;99.90;;;;;;5047244;28;20231;-69
2022/10/11 07:49:35;;;;;;;7.60;2.72;;;21.10;99.90;;;;;;5044587;28;20215;-70
2022/10/11 07:52:01;;;;;;;7.53;2.33;;;20.90;99.90;;;;;;5033096;28;20560;-70
2022/10/11 07:54:26;;;;;;;12.07;2.95;;;21.20;99.90;;;;;;5032120;28;20183;-69
2022/10/11 07:56:52;;;;;;;8.48;3.00;;;21.00;99.90;;;;;;5044550;28;20203;-70
2022/10/11 07:59:17;;;;;;;9.70;3.25;;;21.60;99.90;;;;;;5043863;28;20845;-69
2022/10/11 08:01:43;;;;;;;7.00;2.95;;;21.70;99.90;;;;;;5047388;28;20211;-71
2022/10/11 08:04:09;;;;;;;8.40;2.58;;;21.30;99.90;;;;;;5029041;28;20714;-70
2022/10/11 08:06:35;;;;;;;8.25;2.90;;;20.60;99.90;;;;;;5045280;28;20176;-70
2022/10/11 08:09:01;;;;;;;8.32;2.92;;;20.30;99.90;;;;;;5045914;28;20717;-70
2022/10/11 08:11:29;;;;;;;6.50;3.03;;;20.10;99.90;;;;;;5031782;28;20290;-70
2022/10/11 08:13:56;;;;;;;7.70;3.13;;;20.50;99.90;;;;;;5044826;28;20208;-70
2022/10/11 08:16:22;;;;;;;8.57;3.13;;;20.60;99.90;;;;;;5044797;28;20203;-70
2022/10/11 08:18:48;;;;;;;8.05;2.95;;;20.90;99.90;;;;;;5046940;28;20219;-71
2022/10/11 08:21:16;;;;;;;13.32;4.30;;;20.20;99.90;;;;;;5033864;28;20176;-69
2022/10/11 08:23:41;;;;;;;9.10;2.90;;;20.00;99.90;;;;;;5044596;28;20214;-70
2022/10/11 08:26:08;;;;;;;10.10;3.00;;;19.80;99.90;;;;;;5046175;28;20580;-70
2022/10/11 08:28:34;;;;;;;9.65;2.90;;;19.80;99.90;;;;;;5049223;28;20222;-69
2022/10/11 08:30:59;;;;;;;9.35;3.17;;;19.80;99.90;;;;;;5044852;28;20212;-70
2022/10/11 08:33:25;;;;;;;10.15;3.15;;;19.70;99.90;;;;;;5044462;28;20176;-69
2022/10/11 08:35:52;;;;;;;11.57;5.60;;;19.80;99.90;;;;;;5047065;28;20522;-69
2022/10/11 08:38:18;;;;;;;11.05;4.00;;;19.80;99.90;;;;;;5042309;28;20273;-70
2022/10/11 08:40:54;;;;;;;11.02;3.67;;;19.80;99.90;;;;;;5043523;28;20211;-69
2022/10/11 08:43:27;;;;;;;6.78;2.58;;;19.60;99.90;;;;;;5043466;28;20214;-70
2022/10/11 08:45:56;;;;;;;13.70;6.00;;;19.40;99.90;;;;;;5047789;28;20301;-71
2022/10/11 08:48:41;;;;;;;9.48;2.60;;;19.40;99.90;;;;;;5045861;28;20220;-71
2022/10/11 08:51:28;;;;;;;9.68;2.90;;;19.30;99.90;;;;;;5040759;28;20651;-72
2022/10/11 08:53:53;;;;;;;15.90;3.63;;;19.30;99.90;;;;;;5043006;28;20375;-71
2022/10/11 08:56:19;;;;;;;8.57;2.72;;;19.00;99.90;;;;;;5027754;28;20678;-71
2022/10/11 08:58:48;;;;;;;8.80;2.95;;;19.30;99.90;;;;;;5042131;28;20216;-70
2022/10/11 09:01:25;;;;;;;26.02;13.75;;;19.30;99.90;;;;;;5045873;28;20382;-71
2022/10/11 09:03:51;;;;;;;10.80;3.65;;;19.20;99.90;;;;;;5042864;28;20289;-70
2022/10/11 09:06:27;;;;;;;12.73;4.28;;;18.80;99.90;;;;;;5033902;28;20175;-71
2022/10/11 09:09:02;;;;;;;12.50;3.92;;;18.90;99.90;;;;;;5011325;28;20212;-70
2022/10/11 09:12:16;;;;;;;7.88;3.00;;;19.00;99.90;;;;;;5047231;28;20203;-73
2022/10/11 09:15:27;;;;;;;5.57;2.67;;;19.10;99.90;;;;;;5041098;28;20211;-70
2022/10/11 09:18:33;;;;;;;8.77;2.70;;;19.20;99.90;;;;;;5040000;28;20740;-69
2022/10/11 09:21:02;;;;;;;6.22;2.42;;;18.60;99.90;;;;;;4962186;28;20206;-70
2022/10/11 09:23:40;;;;;;;10.77;2.72;;;18.40;99.90;;;;;;5035705;28;20277;-71
2022/10/11 09:26:24;;;;;;;10.10;2.63;;;18.80;99.90;;;;;;5044527;28;20203;-70
2022/10/11 09:28:52;;;;;;;9.93;2.53;;;19.00;99.90;;;;;;5041891;28;20222;-70
2022/10/11 09:31:18;;;;;;;9.63;3.47;;;19.00;99.90;;;;;;5041388;28;20215;-71
2022/10/11 09:33:49;;;;;;;10.93;3.05;;;18.90;99.90;;;;;;5040850;28;20213;-71
2022/10/11 09:36:27;;;;;;;11.27;3.20;;;18.70;99.90;;;;;;5048971;28;20653;-70
2022/10/11 09:39:06;;;;;;;6.97;2.30;;;18.40;99.90;;;;;;5044820;28;20208;-70
2022/10/11 09:42:07;;;;;;;11.15;3.05;;;18.10;99.90;;;;;;5039366;28;20211;-70
2022/10/11 09:44:50;;;;;;;11.05;3.03;;;18.20;99.90;;;;;;5045577;28;21040;-71
2022/10/11 09:47:29;;;;;;;9.68;2.67;;;18.10;99.90;;;;;;5045730;28;20306;-70
2022/10/11 09:50:12;;;;;;;14.38;2.78;;;18.20;99.90;;;;;;5040594;28;20287;-70
2022/10/11 09:52:51;;;;;;;12.60;2.97;;;18.30;99.90;;;;;;5046065;28;20203;-71
2022/10/11 09:55:32;;;;;;;12.13;3.10;;;18.30;99.90;;;;;;5045009;28;20215;-71
2022/10/11 09:57:58;;;;;;;10.05;2.35;;;18.40;99.90;;;;;;5041323;28;20568;-70
2022/10/11 10:00:31;;;;;;;8.10;2.08;;;18.50;99.90;;;;;;5042313;28;20322;-70
2022/10/11 10:02:58;;;;;;;6.68;2.40;;;18.40;99.90;;;;;;5029195;28;20742;-70
2022/10/11 10:05:29;;;;;;;8.73;2.60;;;18.40;99.90;;;;;;5053972;28;20219;-71
2022/10/11 10:08:23;;;;;;;8.32;2.67;;;18.20;99.90;;;;;;5038916;28;20869;-70
2022/10/11 10:10:59;;;;;;;9.98;2.83;;;18.40;99.90;;;;;;5038644;28;20211;-70
2022/10/11 10:13:40;;;;;;;6.13;2.40;;;18.40;99.90;;;;;;5043217;28;20195;-71
2022/10/11 10:16:10;;;;;;;11.73;2.55;;;18.50;99.90;;;;;;5007596;28;20212;-70
2022/10/11 10:18:41;;;;;;;9.75;2.15;;;18.30;99.90;;;;;;5027869;28;20742;-70
2022/10/11 10:21:12;;;;;;;10.95;2.25;;;18.00;99.90;;;;;;5045364;28;20180;-72
2022/10/11 10:23:38;;;;;;;5.88;2.10;;;18.60;99.90;;;;;;5043568;28;20226;-70
2022/10/11 10:26:19;;;;;;;13.10;2.70;;;19.10;99.90;;;;;;5039685;28;20212;-71
2022/10/11 10:29:09;;;;;;;11.30;2.60;;;18.70;99.90;;;;;;5039451;28;20216;-71
2022/10/11 10:31:36;;;;;;;7.07;2.22;;;18.70;99.90;;;;;;5038357;28;20196;-71
2022/10/11 10:34:09;;;;;;;6.00;2.10;;;18.60;99.90;;;;;;5039841;28;20231;-70
2022/10/11 10:36:37;;;;;;;8.52;2.72;;;18.70;99.90;;;;;;5048207;28;20180;-71
2022/10/11 10:39:38;;;;;;;9.77;2.50;;;18.80;99.90;;;;;;5044410;28;20192;-71
2022/10/11 10:42:12;;;;;;;7.90;2.22;;;18.20;99.90;;;;;;5002516;28;20217;-71
2022/10/11 10:44:38;;;;;;;8.05;2.35;;;17.50;99.90;;;;;;5026614;28;20801;-70
2022/10/11 10:47:18;;;;;;;9.35;2.67;;;17.40;99.90;;;;;;5043530;28;20255;-71
2022/10/11 10:49:56;;;;;;;10.63;2.67;;;17.30;99.90;;;;;;5066033;22;20222;-71
2022/10/11 10:52:46;;;;;;;9.68;2.83;;;16.90;99.90;;;;;;5057330;28;20226;-71
2022/10/11 10:55:20;;;;;;;8.75;2.30;;;17.10;99.90;;;;;;5036702;28;20213;-70
2022/10/11 10:58:00;;;;;;;10.77;2.47;;;17.10;99.90;;;;;;5048511;28;20291;-69
2022/10/11 11:00:30;;;;;;;12.52;2.88;;;17.00;99.90;;;;;;5029300;28;20545;-71
2022/10/11 11:03:19;;;;;;;12.52;2.60;;;16.90;99.90;;;;;;5017230;28;20187;-70
2022/10/11 11:06:21;;;;;;;8.38;2.20;;;17.10;99.90;;;;;;5033344;28;20211;-71
2022/10/11 11:09:09;;;;;;;6.13;2.22;;;16.70;99.90;;;;;;5021907;28;20243;-71
2022/10/11 11:11:58;;;;;;;8.88;2.08;;;16.60;99.90;;;;;;5015740;28;20200;-71
2022/10/11 11:14:49;;;;;;;10.35;2.38;;;16.70;99.90;;;;;;5030405;28;20207;-70
2022/10/11 11:17:29;;;;;;;7.80;2.30;;;16.60;99.90;;;;;;5032367;28;20203;-71
2022/10/11 11:20:30;;;;;;;8.75;2.50;;;16.90;99.90;;;;;;5032328;28;20287;-71
2022/10/11 11:23:19;;;;;;;8.77;2.50;;;17.30;99.90;;;;;;5034238;28;20262;-71
2022/10/11 11:25:48;;;;;;;13.40;2.05;;;17.50;99.90;;;;;;5027087;28;20624;-71
2022/10/11 11:28:42;;;;;;;9.93;2.38;;;17.40;99.90;;;;;;5038013;28;20204;-71
2022/10/11 11:31:26;;;;;;;8.30;2.28;;;17.50;99.90;;;;;;5032042;28;20212;-70
2022/10/11 11:33:51;;;;;;;6.70;2.13;;;17.70;99.90;;;;;;5009206;28;20209;-70
2022/10/11 11:36:45;;;;;;;6.63;1.92;;;17.80;99.90;;;;;;5021247;28;20191;-71
2022/10/11 11:39:31;;;;;;;9.10;1.98;;;18.30;99.90;;;;;;5033891;28;20256;-70
2022/10/11 11:42:06;;;;;;;6.22;1.75;;;18.20;99.90;;;;;;5032150;28;20220;-69
2022/10/11 11:44:37;;;;;;;8.95;2.20;;;17.90;99.90;;;;;;5021548;28;20219;-70
2022/10/11 11:47:17;;;;;;;5.90;2.05;;;17.70;99.90;;;;;;5038627;28;20310;-71
2022/10/11 11:50:21;;;;;;;12.10;2.17;;;17.80;99.90;;;;;;5030933;28;20230;-71
2022/10/11 11:52:51;;;;;;;8.30;2.20;;;17.90;99.90;;;;;;5018720;28;20269;-69
2022/10/11 11:55:30;;;;;;;10.40;3.60;;;17.60;99.90;;;;;;5039725;28;20214;-70
2022/10/11 11:58:11;;;;;;;8.55;2.08;;;17.60;99.90;;;;;;5037357;28;20204;-70
2022/10/11 12:01:08;;;;;;;8.38;2.53;;;17.70;99.90;;;;;;5034101;28;20226;-71
2022/10/11 12:03:40;;;;;;;7.63;2.17;;;17.70;99.90;;;;;;5035738;28;20200;-71
2022/10/11 12:06:24;;;;;;;9.25;2.03;;;17.60;99.90;;;;;;5035303;28;20181;-70
2022/10/11 12:08:55;;;;;;;9.40;2.05;;;17.40;99.90;;;;;;5036930;28;20219;-70
2022/10/11 12:11:27;;;;;;;8.63;1.85;;;17.70;99.90;;;;;;5034704;28;20212;-70
2022/10/11 12:13:54;;;;;;;6.70;1.98;;;17.80;99.90;;;;;;5036106;28;20760;-70
2022/10/11 12:16:20;;;;;;;11.63;2.00;;;17.70;99.90;;;;;;5034261;28;20262;-71
2022/10/11 12:18:46;;;;;;;6.97;2.03;;;17.70;99.90;;;;;;5036028;28;20304;-70
2022/10/11 12:21:37;;;;;;;8.80;2.42;;;17.60;99.90;;;;;;5039202;28;20254;-71
2022/10/11 12:24:10;;;;;;;6.72;1.85;;;17.20;99.90;;;;;;5033285;28;20204;-71
2022/10/11 12:26:41;;;;;;;5.55;1.80;;;17.30;99.90;;;;;;5017617;28;20298;-70
2022/10/11 12:29:19;;;;;;;9.07;2.38;;;17.10;99.90;;;;;;5020275;28;20217;-71
2022/10/11 12:31:48;;;;;;;9.57;2.00;;;17.10;99.90;;;;;;5031306;28;20604;-70
2022/10/11 12:34:32;;;;;;;7.47;2.03;;;17.30;99.90;;;;;;5035790;28;20200;-70
2022/10/11 12:36:57;;;;;;;10.05;2.25;;;17.50;99.90;;;;;;5036523;28;20692;-70
2022/10/11 12:39:23;;;;;;;8.88;2.55;;;17.60;99.90;;;;;;5036350;28;20232;-70
2022/10/11 12:41:48;;;;;;;7.72;1.98;;;17.60;99.90;;;;;;5015938;28;20650;-71
2022/10/11 12:44:17;;;;;;;6.35;1.85;;;17.70;99.90;;;;;;5038741;28;20287;-70
2022/10/11 12:46:56;;;;;;;6.53;2.15;;;17.60;99.90;;;;;;5032092;28;20208;-71
2022/10/11 12:49:36;;;;;;;5.30;1.95;;;17.40;99.90;;;;;;5032353;28;20219;-69
2022/10/11 12:52:23;;;;;;;10.57;2.22;;;17.10;99.90;;;;;;5037166;28;20218;-70
2022/10/11 12:55:00;;;;;;;7.53;1.65;;;16.90;99.90;;;;;;5038373;28;20200;-70
2022/10/11 12:57:59;;;;;;;5.30;1.58;;;17.10;99.90;;;;;;5062648;28;20183;-71
2022/10/11 13:00:38;;;;;;;4.07;1.40;;;17.00;99.90;;;;;;5056892;28;20224;-71
2022/10/11 13:03:24;;;;;;;12.00;2.03;;;17.00;99.90;;;;;;5049193;28;20496;-70
2022/10/11 13:05:51;;;;;;;7.43;2.28;;;16.90;99.90;;;;;;5032067;28;20674;-69
2022/10/11 13:08:27;;;;;;;5.65;1.92;;;16.80;99.90;;;;;;5032642;28;20220;-70
2022/10/11 13:10:58;;;;;;;5.40;2.28;;;16.80;99.90;;;;;;5034531;28;20235;-71